Terminal Aerodrome Forecast
Issued by NWS Wilmington, NC

Home | Current Version | Previous Version | Text Only | Print | Product List | Glossary On
Versions: 1 2 3 4 5 6 7 8 9 10 11 12
000
FTUS42 KILM 282300
TAFFLO
TAF
KFLO 282320Z 2900/2924 22003KT P6SM SKC
      TEMPO 2909/2911 5SM BR
     FM291600 14007KT P6SM FEW060=

USA.gov is the U.S. government's official web portal to all federal, state and local government web resources and services.